Dayton, New Jersey
Current Conditions -  °F | °C
As of 3:53 AM on Thursday 18 Dec 2014 (Local Time) from KTTN Reporting Station
Clear Clear  
Wind Chill: 28°   Ceiling: Unl
Heat Index: 36°   Visibility: 10mi
Dew Point: 21°   Wind: 13mph
Humidity: 55%   Direction: 290°WNW
Pressure: 29.97"   Gusts: 21mph
Location:  40.37°N, 74.51°W
Report Text: KTTN 180853Z AUTO 29011G18KT 10SM CLR 02/M06 A2997 RMK AO2 SLP143 T00221061 53009
Loading
Personal Weather Stations






























Interactive Weather Map New forecast layout! Learn more

10-Day Weather Forecast

Advertisements
Track Severe Weather on mobile